sensor_id;sensor_type;location;lat;lon;timestamp;temperature;humidity
59309;DHT22;48433;53.016;-2.260;2022-07-23T00:01:17;16.30;99.90
59309;DHT22;48433;53.016;-2.260;2022-07-23T00:03:51;16.30;99.90
59309;DHT22;48433;53.016;-2.260;2022-07-23T00:06:23;16.30;99.90
59309;DHT22;48433;53.016;-2.260;2022-07-23T00:09:23;16.40;99.90
59309;DHT22;48433;53.016;-2.260;2022-07-23T00:11:51;16.40;99.90
59309;DHT22;48433;53.016;-2.260;2022-07-23T00:14:19;16.40;99.90
59309;DHT22;48433;53.016;-2.260;2022-07-23T00:16:47;16.40;99.90
59309;DHT22;48433;53.016;-2.260;2022-07-23T00:19:15;16.50;99.90
59309;DHT22;48433;53.016;-2.260;2022-07-23T00:21:43;16.40;99.90
59309;DHT22;48433;53.016;-2.260;2022-07-23T00:24:11;16.50;99.90
59309;DHT22;48433;53.016;-2.260;2022-07-23T00:26:39;16.50;99.90
59309;DHT22;48433;53.016;-2.260;2022-07-23T00:29:07;16.50;99.90
59309;DHT22;48433;53.016;-2.260;2022-07-23T00:31:35;16.50;99.90
59309;DHT22;48433;53.016;-2.260;2022-07-23T00:34:04;16.50;99.90
59309;DHT22;48433;53.016;-2.260;2022-07-23T00:36:33;16.60;99.90
59309;DHT22;48433;53.016;-2.260;2022-07-23T00:39:00;16.60;99.90
59309;DHT22;48433;53.016;-2.260;2022-07-23T00:41:31;16.50;99.90
59309;DHT22;48433;53.016;-2.260;2022-07-23T00:44:23;16.50;99.90
59309;DHT22;48433;53.016;-2.260;2022-07-23T00:46:55;16.50;99.90
59309;DHT22;48433;53.016;-2.260;2022-07-23T00:49:25;16.50;99.90
59309;DHT22;48433;53.016;-2.260;2022-07-23T00:51:55;16.50;99.90
59309;DHT22;48433;53.016;-2.260;2022-07-23T00:54:26;16.50;99.90
59309;DHT22;48433;53.016;-2.260;2022-07-23T00:56:54;16.50;99.90
59309;DHT22;48433;53.016;-2.260;2022-07-23T00:59:25;16.50;99.90
59309;DHT22;48433;53.016;-2.260;2022-07-23T01:01:53;16.50;99.90
59309;DHT22;48433;53.016;-2.260;2022-07-23T01:04:22;16.50;99.90
59309;DHT22;48433;53.016;-2.260;2022-07-23T01:06:50;16.50;99.90
59309;DHT22;48433;53.016;-2.260;2022-07-23T01:09:19;16.60;99.90
59309;DHT22;48433;53.016;-2.260;2022-07-23T01:11:47;16.60;99.90
59309;DHT22;48433;53.016;-2.260;2022-07-23T01:14:17;16.60;99.90
59309;DHT22;48433;53.016;-2.260;2022-07-23T01:16:54;16.60;99.90
59309;DHT22;48433;53.016;-2.260;2022-07-23T01:19:25;16.50;99.90
59309;DHT22;48433;53.016;-2.260;2022-07-23T01:21:53;16.50;99.90
59309;DHT22;48433;53.016;-2.260;2022-07-23T01:24:24;16.50;99.90
59309;DHT22;48433;53.016;-2.260;2022-07-23T01:27:06;16.50;99.90
59309;DHT22;48433;53.016;-2.260;2022-07-23T01:29:37;16.50;99.90
59309;DHT22;48433;53.016;-2.260;2022-07-23T01:32:11;16.60;99.90
59309;DHT22;48433;53.016;-2.260;2022-07-23T01:34:41;16.60;99.90
59309;DHT22;48433;53.016;-2.260;2022-07-23T01:37:09;16.50;99.90
59309;DHT22;48433;53.016;-2.260;2022-07-23T01:39:37;16.50;99.90
59309;DHT22;48433;53.016;-2.260;2022-07-23T01:42:05;16.50;99.90
59309;DHT22;48433;53.016;-2.260;2022-07-23T01:44:34;16.40;99.90
59309;DHT22;48433;53.016;-2.260;2022-07-23T01:47:03;16.40;99.90
59309;DHT22;48433;53.016;-2.260;2022-07-23T01:49:34;16.40;99.90
59309;DHT22;48433;53.016;-2.260;2022-07-23T01:52:22;16.30;99.90
59309;DHT22;48433;53.016;-2.260;2022-07-23T01:54:50;16.30;99.90
59309;DHT22;48433;53.016;-2.260;2022-07-23T01:57:19;16.20;99.90
59309;DHT22;48433;53.016;-2.260;2022-07-23T01:59:48;16.20;99.90
59309;DHT22;48433;53.016;-2.260;2022-07-23T02:02:19;16.10;99.90
59309;DHT22;48433;53.016;-2.260;2022-07-23T02:04:47;16.10;99.90
59309;DHT22;48433;53.016;-2.260;2022-07-23T02:07:17;16.10;99.90
59309;DHT22;48433;53.016;-2.260;2022-07-23T02:09:45;16.10;99.90
59309;DHT22;48433;53.016;-2.260;2022-07-23T02:12:13;16.10;99.90
59309;DHT22;48433;53.016;-2.260;2022-07-23T02:14:44;16.10;99.90
59309;DHT22;48433;53.016;-2.260;2022-07-23T02:17:12;16.10;99.90
59309;DHT22;48433;53.016;-2.260;2022-07-23T02:19:40;16.10;99.90
59309;DHT22;48433;53.016;-2.260;2022-07-23T02:22:08;16.10;99.90
59309;DHT22;48433;53.016;-2.260;2022-07-23T02:24:36;16.10;99.90
59309;DHT22;48433;53.016;-2.260;2022-07-23T02:27:04;16.10;99.90
59309;DHT22;48433;53.016;-2.260;2022-07-23T02:29:33;16.10;99.90
59309;DHT22;48433;53.016;-2.260;2022-07-23T02:32:01;16.10;99.90
59309;DHT22;48433;53.016;-2.260;2022-07-23T02:34:29;16.10;99.90
59309;DHT22;48433;53.016;-2.260;2022-07-23T02:36:57;16.10;99.90
59309;DHT22;48433;53.016;-2.260;2022-07-23T02:39:28;16.10;99.90
59309;DHT22;48433;53.016;-2.260;2022-07-23T02:41:56;16.10;99.90
59309;DHT22;48433;53.016;-2.260;2022-07-23T02:44:24;16.10;99.90
59309;DHT22;48433;53.016;-2.260;2022-07-23T02:46:53;16.10;99.90
59309;DHT22;48433;53.016;-2.260;2022-07-23T02:49:42;16.10;99.90
59309;DHT22;48433;53.016;-2.260;2022-07-23T02:52:10;16.10;99.90
59309;DHT22;48433;53.016;-2.260;2022-07-23T02:54:38;16.10;99.90
59309;DHT22;48433;53.016;-2.260;2022-07-23T02:57:09;16.10;99.90
59309;DHT22;48433;53.016;-2.260;2022-07-23T02:59:37;16.10;99.90
59309;DHT22;48433;53.016;-2.260;2022-07-23T03:02:05;16.10;99.90
59309;DHT22;48433;53.016;-2.260;2022-07-23T03:04:33;16.10;99.90
59309;DHT22;48433;53.016;-2.260;2022-07-23T03:07:01;16.00;99.90
59309;DHT22;48433;53.016;-2.260;2022-07-23T03:09:34;16.10;99.90
59309;DHT22;48433;53.016;-2.260;2022-07-23T03:12:02;16.00;99.90
59309;DHT22;48433;53.016;-2.260;2022-07-23T03:14:30;16.00;99.90
59309;DHT22;48433;53.016;-2.260;2022-07-23T03:16:58;15.90;99.90
59309;DHT22;48433;53.016;-2.260;2022-07-23T03:19:27;15.80;99.90
59309;DHT22;48433;53.016;-2.260;2022-07-23T03:21:55;15.70;99.90
59309;DHT22;48433;53.016;-2.260;2022-07-23T03:24:23;15.70;99.90
59309;DHT22;48433;53.016;-2.260;2022-07-23T03:27:11;15.60;99.90
59309;DHT22;48433;53.016;-2.260;2022-07-23T03:29:39;15.60;99.90
59309;DHT22;48433;53.016;-2.260;2022-07-23T03:32:07;15.60;99.90
59309;DHT22;48433;53.016;-2.260;2022-07-23T03:34:36;15.50;99.90
59309;DHT22;48433;53.016;-2.260;2022-07-23T03:37:04;15.50;99.90
59309;DHT22;48433;53.016;-2.260;2022-07-23T03:39:32;15.60;99.90
59309;DHT22;48433;53.016;-2.260;2022-07-23T03:42:01;15.60;99.90
59309;DHT22;48433;53.016;-2.260;2022-07-23T03:44:32;15.60;99.90
59309;DHT22;48433;53.016;-2.260;2022-07-23T03:47:03;15.60;99.90
59309;DHT22;48433;53.016;-2.260;2022-07-23T03:49:34;15.60;99.90
59309;DHT22;48433;53.016;-2.260;2022-07-23T03:52:03;15.60;99.90
59309;DHT22;48433;53.016;-2.260;2022-07-23T03:54:31;15.60;99.90
59309;DHT22;48433;53.016;-2.260;2022-07-23T03:56:59;15.60;99.90
59309;DHT22;48433;53.016;-2.260;2022-07-23T03:59:27;15.60;99.90
59309;DHT22;48433;53.016;-2.260;2022-07-23T04:01:54;15.50;99.90
59309;DHT22;48433;53.016;-2.260;2022-07-23T04:04:22;15.50;99.90
59309;DHT22;48433;53.016;-2.260;2022-07-23T04:06:50;15.50;99.90
59309;DHT22;48433;53.016;-2.260;2022-07-23T04:09:18;15.50;99.90
59309;DHT22;48433;53.016;-2.260;2022-07-23T04:11:47;15.50;99.90
59309;DHT22;48433;53.016;-2.260;2022-07-23T04:14:15;15.40;99.90
59309;DHT22;48433;53.016;-2.260;2022-07-23T04:16:43;15.40;99.90
59309;DHT22;48433;53.016;-2.260;2022-07-23T04:19:11;15.40;99.90
59309;DHT22;48433;53.016;-2.260;2022-07-23T04:21:52;15.40;99.90
59309;DHT22;48433;53.016;-2.260;2022-07-23T04:24:20;15.40;99.90
59309;DHT22;48433;53.016;-2.260;2022-07-23T04:26:49;15.30;99.90
59309;DHT22;48433;53.016;-2.260;2022-07-23T04:29:17;15.30;99.90
59309;DHT22;48433;53.016;-2.260;2022-07-23T04:31:45;15.20;99.90
59309;DHT22;48433;53.016;-2.260;2022-07-23T04:34:13;15.20;99.90
59309;DHT22;48433;53.016;-2.260;2022-07-23T04:36:42;15.20;99.90
59309;DHT22;48433;53.016;-2.260;2022-07-23T04:39:13;15.10;99.90
59309;DHT22;48433;53.016;-2.260;2022-07-23T04:41:54;15.10;99.90
59309;DHT22;48433;53.016;-2.260;2022-07-23T04:44:22;15.10;99.90
59309;DHT22;48433;53.016;-2.260;2022-07-23T04:47:13;15.10;99.90
59309;DHT22;48433;53.016;-2.260;2022-07-23T04:49:46;15.00;99.90
59309;DHT22;48433;53.016;-2.260;2022-07-23T04:52:15;15.00;99.90
59309;DHT22;48433;53.016;-2.260;2022-07-23T04:54:43;15.10;99.90
59309;DHT22;48433;53.016;-2.260;2022-07-23T04:57:11;15.10;99.90
59309;DHT22;48433;53.016;-2.260;2022-07-23T04:59:39;15.10;99.90
59309;DHT22;48433;53.016;-2.260;2022-07-23T05:02:09;15.10;99.90
59309;DHT22;48433;53.016;-2.260;2022-07-23T05:04:37;15.10;99.90
59309;DHT22;48433;53.016;-2.260;2022-07-23T05:07:06;15.20;99.90
59309;DHT22;48433;53.016;-2.260;2022-07-23T05:09:34;15.20;99.90
59309;DHT22;48433;53.016;-2.260;2022-07-23T05:12:02;15.20;99.90
59309;DHT22;48433;53.016;-2.260;2022-07-23T05:14:32;15.20;99.90
59309;DHT22;48433;53.016;-2.260;2022-07-23T05:17:01;15.20;99.90
59309;DHT22;48433;53.016;-2.260;2022-07-23T05:19:31;15.20;99.90
59309;DHT22;48433;53.016;-2.260;2022-07-23T05:21:59;15.30;99.90
59309;DHT22;48433;53.016;-2.260;2022-07-23T05:24:27;15.30;99.90
59309;DHT22;48433;53.016;-2.260;2022-07-23T05:26:54;15.40;99.90
59309;DHT22;48433;53.016;-2.260;2022-07-23T05:29:26;15.40;99.90
59309;DHT22;48433;53.016;-2.260;2022-07-23T05:31:55;15.40;99.90
59309;DHT22;48433;53.016;-2.260;2022-07-23T05:34:23;15.50;99.90
59309;DHT22;48433;53.016;-2.260;2022-07-23T05:36:51;15.60;99.90
59309;DHT22;48433;53.016;-2.260;2022-07-23T05:39:20;15.60;99.90
59309;DHT22;48433;53.016;-2.260;2022-07-23T05:41:50;15.70;99.90
59309;DHT22;48433;53.016;-2.260;2022-07-23T05:44:18;15.70;99.90
59309;DHT22;48433;53.016;-2.260;2022-07-23T05:46:46;15.80;99.90
59309;DHT22;48433;53.016;-2.260;2022-07-23T05:49:23;15.90;99.90
59309;DHT22;48433;53.016;-2.260;2022-07-23T05:52:10;16.00;99.90
59309;DHT22;48433;53.016;-2.260;2022-07-23T05:54:56;16.10;99.90
59309;DHT22;48433;53.016;-2.260;2022-07-23T05:57:25;16.10;99.90
59309;DHT22;48433;53.016;-2.260;2022-07-23T05:59:53;16.10;99.90
59309;DHT22;48433;53.016;-2.260;2022-07-23T06:02:21;16.20;99.90
59309;DHT22;48433;53.016;-2.260;2022-07-23T06:04:49;16.20;99.90
59309;DHT22;48433;53.016;-2.260;2022-07-23T06:07:27;16.30;99.90
59309;DHT22;48433;53.016;-2.260;2022-07-23T06:09:55;16.30;99.90
59309;DHT22;48433;53.016;-2.260;2022-07-23T06:12:23;16.30;99.90
59309;DHT22;48433;53.016;-2.260;2022-07-23T06:14:52;16.30;99.90
59309;DHT22;48433;53.016;-2.260;2022-07-23T06:17:20;16.20;99.90
59309;DHT22;48433;53.016;-2.260;2022-07-23T06:19:48;16.20;99.90
59309;DHT22;48433;53.016;-2.260;2022-07-23T06:22:19;16.10;99.90
59309;DHT22;48433;53.016;-2.260;2022-07-23T06:25:19;16.10;99.90
59309;DHT22;48433;53.016;-2.260;2022-07-23T06:27:51;16.00;99.90
59309;DHT22;48433;53.016;-2.260;2022-07-23T06:30:19;16.00;99.90
59309;DHT22;48433;53.016;-2.260;2022-07-23T06:32:48;16.00;99.90
59309;DHT22;48433;53.016;-2.260;2022-07-23T06:35:16;16.00;99.90
59309;DHT22;48433;53.016;-2.260;2022-07-23T06:37:49;16.10;99.90
59309;DHT22;48433;53.016;-2.260;2022-07-23T06:40:17;16.10;99.90
59309;DHT22;48433;53.016;-2.260;2022-07-23T06:42:47;16.10;99.90
59309;DHT22;48433;53.016;-2.260;2022-07-23T06:45:21;16.20;99.90
59309;DHT22;48433;53.016;-2.260;2022-07-23T06:47:49;16.30;99.90
59309;DHT22;48433;53.016;-2.260;2022-07-23T06:50:57;16.30;99.90
59309;DHT22;48433;53.016;-2.260;2022-07-23T06:53:26;16.30;99.90
59309;DHT22;48433;53.016;-2.260;2022-07-23T06:55:54;16.30;99.90
59309;DHT22;48433;53.016;-2.260;2022-07-23T06:58:25;16.00;99.90
59309;DHT22;48433;53.016;-2.260;2022-07-23T07:00:52;16.50;99.90
59309;DHT22;48433;53.016;-2.260;2022-07-23T07:03:20;16.60;99.90
59309;DHT22;48433;53.016;-2.260;2022-07-23T07:05:49;16.80;99.90
59309;DHT22;48433;53.016;-2.260;2022-07-23T07:08:18;17.00;99.90
59309;DHT22;48433;53.016;-2.260;2022-07-23T07:10:46;17.10;99.90
59309;DHT22;48433;53.016;-2.260;2022-07-23T07:13:14;17.20;99.90
59309;DHT22;48433;53.016;-2.260;2022-07-23T07:15:42;17.20;99.90
59309;DHT22;48433;53.016;-2.260;2022-07-23T07:18:10;17.30;99.90
59309;DHT22;48433;53.016;-2.260;2022-07-23T07:20:38;17.20;99.90
59309;DHT22;48433;53.016;-2.260;2022-07-23T07:23:26;17.20;99.90
59309;DHT22;48433;53.016;-2.260;2022-07-23T07:25:54;17.20;99.90
59309;DHT22;48433;53.016;-2.260;2022-07-23T07:28:22;17.30;99.90
59309;DHT22;48433;53.016;-2.260;2022-07-23T07:30:50;17.40;99.90
59309;DHT22;48433;53.016;-2.260;2022-07-23T07:33:19;17.40;99.90
59309;DHT22;48433;53.016;-2.260;2022-07-23T07:35:51;17.50;99.90
59309;DHT22;48433;53.016;-2.260;2022-07-23T07:38:30;17.60;99.90
59309;DHT22;48433;53.016;-2.260;2022-07-23T07:40:58;17.60;99.90
59309;DHT22;48433;53.016;-2.260;2022-07-23T07:43:26;17.50;99.90
59309;DHT22;48433;53.016;-2.260;2022-07-23T07:45:54;17.60;99.90
59309;DHT22;48433;53.016;-2.260;2022-07-23T07:48:22;17.50;99.90
59309;DHT22;48433;53.016;-2.260;2022-07-23T07:50:51;17.50;99.90
59309;DHT22;48433;53.016;-2.260;2022-07-23T07:53:20;17.60;99.90
59309;DHT22;48433;53.016;-2.260;2022-07-23T07:55:48;17.80;99.90
59309;DHT22;48433;53.016;-2.260;2022-07-23T07:58:18;18.00;99.90
59309;DHT22;48433;53.016;-2.260;2022-07-23T08:00:46;18.40;99.90
59309;DHT22;48433;53.016;-2.260;2022-07-23T08:03:14;18.60;99.90
59309;DHT22;48433;53.016;-2.260;2022-07-23T08:05:42;18.60;99.90
59309;DHT22;48433;53.016;-2.260;2022-07-23T08:08:10;18.60;99.90
59309;DHT22;48433;53.016;-2.260;2022-07-23T08:10:42;18.70;99.90
59309;DHT22;48433;53.016;-2.260;2022-07-23T08:13:15;18.70;99.90
59309;DHT22;48433;53.016;-2.260;2022-07-23T08:15:43;18.60;99.90
59309;DHT22;48433;53.016;-2.260;2022-07-23T08:18:13;18.60;99.90
59309;DHT22;48433;53.016;-2.260;2022-07-23T08:20:44;18.70;99.90
59309;DHT22;48433;53.016;-2.260;2022-07-23T08:23:12;18.70;99.90
59309;DHT22;48433;53.016;-2.260;2022-07-23T08:25:41;18.60;99.90
59309;DHT22;48433;53.016;-2.260;2022-07-23T08:28:11;18.50;99.90
59309;DHT22;48433;53.016;-2.260;2022-07-23T08:30:41;18.40;99.90
59309;DHT22;48433;53.016;-2.260;2022-07-23T08:33:14;18.40;99.90
59309;DHT22;48433;53.016;-2.260;2022-07-23T08:36:02;18.30;99.90
59309;DHT22;48433;53.016;-2.260;2022-07-23T08:38:32;18.40;99.90
59309;DHT22;48433;53.016;-2.260;2022-07-23T08:41:01;18.50;99.90
59309;DHT22;48433;53.016;-2.260;2022-07-23T08:43:32;18.50;99.90
59309;DHT22;48433;53.016;-2.260;2022-07-23T08:46:03;18.60;99.90
59309;DHT22;48433;53.016;-2.260;2022-07-23T08:48:34;18.70;99.90
59309;DHT22;48433;53.016;-2.260;2022-07-23T08:51:07;18.80;99.90
59309;DHT22;48433;53.016;-2.260;2022-07-23T08:53:35;19.00;99.90
59309;DHT22;48433;53.016;-2.260;2022-07-23T08:56:05;19.20;99.90
59309;DHT22;48433;53.016;-2.260;2022-07-23T08:58:47;19.50;99.90
59309;DHT22;48433;53.016;-2.260;2022-07-23T09:01:17;19.80;99.90
59309;DHT22;48433;53.016;-2.260;2022-07-23T09:03:46;19.90;99.90
59309;DHT22;48433;53.016;-2.260;2022-07-23T09:06:14;19.90;98.30
59309;DHT22;48433;53.016;-2.260;2022-07-23T09:09:19;20.10;98.20
59309;DHT22;48433;53.016;-2.260;2022-07-23T09:12:02;20.30;97.00
59309;DHT22;48433;53.016;-2.260;2022-07-23T09:14:43;20.60;97.50
59309;DHT22;48433;53.016;-2.260;2022-07-23T09:17:13;21.00;96.70
59309;DHT22;48433;53.016;-2.260;2022-07-23T09:19:43;21.40;96.20
59309;DHT22;48433;53.016;-2.260;2022-07-23T09:22:19;21.30;95.60
59309;DHT22;48433;53.016;-2.260;2022-07-23T09:25:08;21.30;95.70
59309;DHT22;48433;53.016;-2.260;2022-07-23T09:30:25;21.50;94.80
59309;DHT22;48433;53.016;-2.260;2022-07-23T09:33:15;21.50;94.90
59309;DHT22;48433;53.016;-2.260;2022-07-23T09:35:54;21.30;94.30
59309;DHT22;48433;53.016;-2.260;2022-07-23T09:38:24;21.10;94.20
59309;DHT22;48433;53.016;-2.260;2022-07-23T09:43:39;20.50;94.10
59309;DHT22;48433;53.016;-2.260;2022-07-23T09:46:27;20.40;94.60
59309;DHT22;48433;53.016;-2.260;2022-07-23T09:48:58;20.30;94.80
59309;DHT22;48433;53.016;-2.260;2022-07-23T09:51:59;20.20;94.30
59309;DHT22;48433;53.016;-2.260;2022-07-23T09:57:12;19.90;94.40
59309;DHT22;48433;53.016;-2.260;2022-07-23T09:59:43;19.80;94.60
59309;DHT22;48433;53.016;-2.260;2022-07-23T10:02:12;19.80;95.10
59309;DHT22;48433;53.016;-2.260;2022-07-23T10:04:58;19.80;95.50
59309;DHT22;48433;53.016;-2.260;2022-07-23T10:07:48;19.70;95.60
59309;DHT22;48433;53.016;-2.260;2022-07-23T10:10:41;19.60;96.30
59309;DHT22;48433;53.016;-2.260;2022-07-23T10:13:10;19.60;96.30
59309;DHT22;48433;53.016;-2.260;2022-07-23T10:15:52;19.60;96.60
59309;DHT22;48433;53.016;-2.260;2022-07-23T10:18:21;19.60;97.00
59309;DHT22;48433;53.016;-2.260;2022-07-23T10:20:50;19.60;97.40
59309;DHT22;48433;53.016;-2.260;2022-07-23T10:23:31;19.60;97.70
59309;DHT22;48433;53.016;-2.260;2022-07-23T10:26:19;19.60;98.10
59309;DHT22;48433;53.016;-2.260;2022-07-23T10:29:11;19.60;98.40
59309;DHT22;48433;53.016;-2.260;2022-07-23T10:32:00;19.50;99.40
59309;DHT22;48433;53.016;-2.260;2022-07-23T10:34:41;19.40;99.90
59309;DHT22;48433;53.016;-2.260;2022-07-23T10:37:45;19.20;99.90
59309;DHT22;48433;53.016;-2.260;2022-07-23T10:41:05;19.00;99.90
59309;DHT22;48433;53.016;-2.260;2022-07-23T10:49:44;18.90;99.90
59309;DHT22;48433;53.016;-2.260;2022-07-23T10:52:24;18.90;99.90
59309;DHT22;48433;53.016;-2.260;2022-07-23T10:57:27;18.90;99.90
59309;DHT22;48433;53.016;-2.260;2022-07-23T11:02:36;18.90;99.90
59309;DHT22;48433;53.016;-2.260;2022-07-23T11:05:11;18.90;99.90
59309;DHT22;48433;53.016;-2.260;2022-07-23T11:13:49;18.80;99.90
59309;DHT22;48433;53.016;-2.260;2022-07-23T11:16:47;18.80;99.90
59309;DHT22;48433;53.016;-2.260;2022-07-23T11:19:19;18.80;99.90
59309;DHT22;48433;53.016;-2.260;2022-07-23T11:21:48;18.90;99.90
59309;DHT22;48433;53.016;-2.260;2022-07-23T11:24:18;18.90;99.90
59309;DHT22;48433;53.016;-2.260;2022-07-23T11:26:55;19.00;99.90
59309;DHT22;48433;53.016;-2.260;2022-07-23T11:32:03;19.00;99.90
59309;DHT22;48433;53.016;-2.260;2022-07-23T11:37:04;19.10;99.90
59309;DHT22;48433;53.016;-2.260;2022-07-23T11:39:33;19.20;99.90
59309;DHT22;48433;53.016;-2.260;2022-07-23T11:42:02;19.30;99.90
59309;DHT22;48433;53.016;-2.260;2022-07-23T11:44:37;19.40;99.90
59309;DHT22;48433;53.016;-2.260;2022-07-23T11:47:08;19.60;99.90
59309;DHT22;48433;53.016;-2.260;2022-07-23T11:49:36;19.80;99.90
59309;DHT22;48433;53.016;-2.260;2022-07-23T11:52:10;20.00;99.90
59309;DHT22;48433;53.016;-2.260;2022-07-23T11:54:59;20.30;99.90
59309;DHT22;48433;53.016;-2.260;2022-07-23T11:57:32;20.80;99.90
59309;DHT22;48433;53.016;-2.260;2022-07-23T12:03:05;21.40;99.40
59309;DHT22;48433;53.016;-2.260;2022-07-23T12:05:36;21.50;98.90
59309;DHT22;48433;53.016;-2.260;2022-07-23T12:08:07;21.60;98.50
59309;DHT22;48433;53.016;-2.260;2022-07-23T12:13:06;21.90;97.50
59309;DHT22;48433;53.016;-2.260;2022-07-23T12:15:37;21.90;97.10
59309;DHT22;48433;53.016;-2.260;2022-07-23T12:18:08;21.80;97.20
59309;DHT22;48433;53.016;-2.260;2022-07-23T12:20:38;21.70;97.20
59309;DHT22;48433;53.016;-2.260;2022-07-23T12:23:07;21.50;97.20
59309;DHT22;48433;53.016;-2.260;2022-07-23T12:25:41;21.40;97.50
59309;DHT22;48433;53.016;-2.260;2022-07-23T12:30:56;21.00;97.70
59309;DHT22;48433;53.016;-2.260;2022-07-23T12:33:30;20.90;98.10
59309;DHT22;48433;53.016;-2.260;2022-07-23T12:36:00;20.90;98.40
59309;DHT22;48433;53.016;-2.260;2022-07-23T12:38:42;20.90;98.50
59309;DHT22;48433;53.016;-2.260;2022-07-23T12:41:12;20.90;98.40
59309;DHT22;48433;53.016;-2.260;2022-07-23T12:43:43;21.00;98.20
59309;DHT22;48433;53.016;-2.260;2022-07-23T12:46:16;21.00;98.20
59309;DHT22;48433;53.016;-2.260;2022-07-23T12:48:52;21.00;98.20
59309;DHT22;48433;53.016;-2.260;2022-07-23T12:51:26;20.90;98.40
59309;DHT22;48433;53.016;-2.260;2022-07-23T12:53:57;20.90;98.60
59309;DHT22;48433;53.016;-2.260;2022-07-23T12:56:31;20.80;98.60
59309;DHT22;48433;53.016;-2.260;2022-07-23T12:59:10;20.70;98.80
59309;DHT22;48433;53.016;-2.260;2022-07-23T13:01:53;20.70;99.00
59309;DHT22;48433;53.016;-2.260;2022-07-23T13:04:23;20.70;99.20
59309;DHT22;48433;53.016;-2.260;2022-07-23T13:06:58;20.80;99.30
59309;DHT22;48433;53.016;-2.260;2022-07-23T13:09:28;20.90;99.60
59309;DHT22;48433;53.016;-2.260;2022-07-23T13:12:00;21.10;99.10
59309;DHT22;48433;53.016;-2.260;2022-07-23T13:14:29;21.20;98.90
59309;DHT22;48433;53.016;-2.260;2022-07-23T13:16:58;21.30;98.60
59309;DHT22;48433;53.016;-2.260;2022-07-23T13:19:26;21.40;98.70
59309;DHT22;48433;53.016;-2.260;2022-07-23T13:21:54;21.50;98.60
59309;DHT22;48433;53.016;-2.260;2022-07-23T13:24:22;21.60;98.20
59309;DHT22;48433;53.016;-2.260;2022-07-23T13:26:50;21.70;98.10
59309;DHT22;48433;53.016;-2.260;2022-07-23T13:29:19;21.70;98.20
59309;DHT22;48433;53.016;-2.260;2022-07-23T13:31:48;21.60;98.00
59309;DHT22;48433;53.016;-2.260;2022-07-23T13:34:18;21.60;98.00
59309;DHT22;48433;53.016;-2.260;2022-07-23T13:36:47;21.60;98.10
59309;DHT22;48433;53.016;-2.260;2022-07-23T13:39:15;21.60;98.20
59309;DHT22;48433;53.016;-2.260;2022-07-23T13:45:08;21.90;98.00
59309;DHT22;48433;53.016;-2.260;2022-07-23T13:48:09;21.90;97.90
59309;DHT22;48433;53.016;-2.260;2022-07-23T13:50:38;21.70;97.90
59309;DHT22;48433;53.016;-2.260;2022-07-23T13:53:09;21.60;98.10
59309;DHT22;48433;53.016;-2.260;2022-07-23T13:55:38;21.50;98.40
59309;DHT22;48433;53.016;-2.260;2022-07-23T13:58:07;21.30;98.80
59309;DHT22;48433;53.016;-2.260;2022-07-23T14:00:37;21.10;99.10
59309;DHT22;48433;53.016;-2.260;2022-07-23T14:03:21;21.00;99.40
59309;DHT22;48433;53.016;-2.260;2022-07-23T14:05:54;21.00;99.60
59309;DHT22;48433;53.016;-2.260;2022-07-23T14:08:23;20.90;99.80
59309;DHT22;48433;53.016;-2.260;2022-07-23T14:10:51;20.80;99.90
59309;DHT22;48433;53.016;-2.260;2022-07-23T14:13:18;20.70;99.90
59309;DHT22;48433;53.016;-2.260;2022-07-23T14:15:48;20.60;99.90
59309;DHT22;48433;53.016;-2.260;2022-07-23T14:18:38;20.60;99.90
59309;DHT22;48433;53.016;-2.260;2022-07-23T14:21:05;20.50;99.90
59309;DHT22;48433;53.016;-2.260;2022-07-23T14:23:33;20.40;99.90
59309;DHT22;48433;53.016;-2.260;2022-07-23T14:26:02;20.40;99.90
59309;DHT22;48433;53.016;-2.260;2022-07-23T14:28:33;20.50;99.90
59309;DHT22;48433;53.016;-2.260;2022-07-23T14:31:02;20.40;99.90
59309;DHT22;48433;53.016;-2.260;2022-07-23T14:33:30;20.40;99.90
59309;DHT22;48433;53.016;-2.260;2022-07-23T14:36:27;20.50;99.90
59309;DHT22;48433;53.016;-2.260;2022-07-23T14:38:55;20.60;99.90
59309;DHT22;48433;53.016;-2.260;2022-07-23T14:41:23;20.80;99.90
59309;DHT22;48433;53.016;-2.260;2022-07-23T14:43:54;21.00;99.90
59309;DHT22;48433;53.016;-2.260;2022-07-23T14:46:23;21.10;99.90
59309;DHT22;48433;53.016;-2.260;2022-07-23T14:48:51;21.20;99.90
59309;DHT22;48433;53.016;-2.260;2022-07-23T14:51:19;21.20;99.90
59309;DHT22;48433;53.016;-2.260;2022-07-23T14:53:47;21.20;99.90
59309;DHT22;48433;53.016;-2.260;2022-07-23T14:56:15;21.20;99.90
59309;DHT22;48433;53.016;-2.260;2022-07-23T14:58:43;21.20;99.90
59309;DHT22;48433;53.016;-2.260;2022-07-23T15:01:11;21.20;99.90
59309;DHT22;48433;53.016;-2.260;2022-07-23T15:03:39;21.10;99.90
59309;DHT22;48433;53.016;-2.260;2022-07-23T15:06:10;21.10;99.90
59309;DHT22;48433;53.016;-2.260;2022-07-23T15:08:39;21.20;99.90
59309;DHT22;48433;53.016;-2.260;2022-07-23T15:11:07;21.30;99.90
59309;DHT22;48433;53.016;-2.260;2022-07-23T15:13:38;21.50;99.90
59309;DHT22;48433;53.016;-2.260;2022-07-23T15:16:06;21.60;99.60
59309;DHT22;48433;53.016;-2.260;2022-07-23T15:18:55;21.70;99.30
59309;DHT22;48433;53.016;-2.260;2022-07-23T15:21:22;21.80;99.00
59309;DHT22;48433;53.016;-2.260;2022-07-23T15:23:50;21.80;98.90
59309;DHT22;48433;53.016;-2.260;2022-07-23T15:26:18;21.90;99.00
59309;DHT22;48433;53.016;-2.260;2022-07-23T15:28:46;21.90;98.90
59309;DHT22;48433;53.016;-2.260;2022-07-23T15:31:14;21.90;98.80
59309;DHT22;48433;53.016;-2.260;2022-07-23T15:33:42;21.80;98.80
59309;DHT22;48433;53.016;-2.260;2022-07-23T15:36:10;21.80;98.70
59309;DHT22;48433;53.016;-2.260;2022-07-23T15:38:38;21.70;98.70
59309;DHT22;48433;53.016;-2.260;2022-07-23T15:41:06;21.60;99.00
59309;DHT22;48433;53.016;-2.260;2022-07-23T15:43:35;21.60;99.30
59309;DHT22;48433;53.016;-2.260;2022-07-23T15:46:04;21.50;99.40
59309;DHT22;48433;53.016;-2.260;2022-07-23T15:48:37;21.50;99.50
59309;DHT22;48433;53.016;-2.260;2022-07-23T15:51:05;21.40;99.60
59309;DHT22;48433;53.016;-2.260;2022-07-23T15:53:37;21.30;99.70
59309;DHT22;48433;53.016;-2.260;2022-07-23T15:56:06;21.30;99.80
59309;DHT22;48433;53.016;-2.260;2022-07-23T15:58:42;21.20;99.90
59309;DHT22;48433;53.016;-2.260;2022-07-23T16:01:11;21.20;99.90
59309;DHT22;48433;53.016;-2.260;2022-07-23T16:03:40;21.30;99.90
59309;DHT22;48433;53.016;-2.260;2022-07-23T16:06:11;21.30;99.70
59309;DHT22;48433;53.016;-2.260;2022-07-23T16:08:45;21.30;99.70
59309;DHT22;48433;53.016;-2.260;2022-07-23T16:11:13;21.40;99.70
59309;DHT22;48433;53.016;-2.260;2022-07-23T16:13:41;21.50;99.60
59309;DHT22;48433;53.016;-2.260;2022-07-23T16:16:12;21.60;99.30
59309;DHT22;48433;53.016;-2.260;2022-07-23T16:18:40;21.60;99.40
59309;DHT22;48433;53.016;-2.260;2022-07-23T16:21:08;21.70;99.20
59309;DHT22;48433;53.016;-2.260;2022-07-23T16:23:42;21.70;99.00
59309;DHT22;48433;53.016;-2.260;2022-07-23T16:26:10;21.70;99.00